sensor_id;sensor_type;location;lat;lon;timestamp;temperature;humidity
67557;DHT22;54387;53.526;49.300;2023-03-05T00:01:20;1.10;69.90
67557;DHT22;54387;53.526;49.300;2023-03-05T00:03:50;1.10;69.90
67557;DHT22;54387;53.526;49.300;2023-03-05T00:06:20;1.10;69.90
67557;DHT22;54387;53.526;49.300;2023-03-05T00:08:46;1.10;69.70
67557;DHT22;54387;53.526;49.300;2023-03-05T00:11:13;1.10;69.60
67557;DHT22;54387;53.526;49.300;2023-03-05T00:13:39;1.10;69.60
67557;DHT22;54387;53.526;49.300;2023-03-05T00:16:06;1.10;69.60
67557;DHT22;54387;53.526;49.300;2023-03-05T00:18:33;1.10;69.70
67557;DHT22;54387;53.526;49.300;2023-03-05T00:20:59;1.10;69.60
67557;DHT22;54387;53.526;49.300;2023-03-05T00:23:26;1.10;69.60
67557;DHT22;54387;53.526;49.300;2023-03-05T00:25:52;1.10;69.50
67557;DHT22;54387;53.526;49.300;2023-03-05T00:28:18;1.00;69.40
67557;DHT22;54387;53.526;49.300;2023-03-05T00:30:44;0.90;69.50
67557;DHT22;54387;53.526;49.300;2023-03-05T00:33:11;0.90;69.60
67557;DHT22;54387;53.526;49.300;2023-03-05T00:35:41;0.90;69.70
67557;DHT22;54387;53.526;49.300;2023-03-05T00:38:08;0.90;69.70
67557;DHT22;54387;53.526;49.300;2023-03-05T00:40:35;0.90;69.80
67557;DHT22;54387;53.526;49.300;2023-03-05T00:43:02;0.90;69.80
67557;DHT22;54387;53.526;49.300;2023-03-05T00:45:28;0.90;70.30
67557;DHT22;54387;53.526;49.300;2023-03-05T00:47:54;0.80;69.80
67557;DHT22;54387;53.526;49.300;2023-03-05T00:50:20;0.80;69.90
67557;DHT22;54387;53.526;49.300;2023-03-05T00:52:46;0.90;69.90
67557;DHT22;54387;53.526;49.300;2023-03-05T00:55:12;0.90;69.80
67557;DHT22;54387;53.526;49.300;2023-03-05T00:57:38;0.80;69.80
67557;DHT22;54387;53.526;49.300;2023-03-05T01:00:04;0.80;69.80
67557;DHT22;54387;53.526;49.300;2023-03-05T01:02:31;0.80;69.80
67557;DHT22;54387;53.526;49.300;2023-03-05T01:04:57;0.90;69.90
67557;DHT22;54387;53.526;49.300;2023-03-05T01:07:23;0.80;69.80
67557;DHT22;54387;53.526;49.300;2023-03-05T01:09:49;0.80;69.80
67557;DHT22;54387;53.526;49.300;2023-03-05T01:12:15;0.80;69.80
67557;DHT22;54387;53.526;49.300;2023-03-05T01:14:41;0.80;69.80
67557;DHT22;54387;53.526;49.300;2023-03-05T01:17:07;0.80;69.90
67557;DHT22;54387;53.526;49.300;2023-03-05T01:19:38;0.70;69.90
67557;DHT22;54387;53.526;49.300;2023-03-05T01:22:04;0.70;70.00
67557;DHT22;54387;53.526;49.300;2023-03-05T01:24:30;0.70;70.10
67557;DHT22;54387;53.526;49.300;2023-03-05T01:26:57;0.70;70.20
67557;DHT22;54387;53.526;49.300;2023-03-05T01:29:23;0.70;70.30
67557;DHT22;54387;53.526;49.300;2023-03-05T01:31:49;0.80;70.20
67557;DHT22;54387;53.526;49.300;2023-03-05T01:34:15;0.80;70.20
67557;DHT22;54387;53.526;49.300;2023-03-05T01:36:42;0.80;70.20
67557;DHT22;54387;53.526;49.300;2023-03-05T01:39:08;0.80;70.10
67557;DHT22;54387;53.526;49.300;2023-03-05T01:41:34;0.90;70.10
67557;DHT22;54387;53.526;49.300;2023-03-05T01:44:01;0.90;70.00
67557;DHT22;54387;53.526;49.300;2023-03-05T01:49:09;0.90;69.80
67557;DHT22;54387;53.526;49.300;2023-03-05T01:51:38;0.90;69.80
67557;DHT22;54387;53.526;49.300;2023-03-05T01:54:06;0.80;69.70
67557;DHT22;54387;53.526;49.300;2023-03-05T01:56:33;0.80;69.70
67557;DHT22;54387;53.526;49.300;2023-03-05T01:58:59;0.80;69.70
67557;DHT22;54387;53.526;49.300;2023-03-05T02:01:29;0.80;69.70
67557;DHT22;54387;53.526;49.300;2023-03-05T02:03:56;0.80;69.60
67557;DHT22;54387;53.526;49.300;2023-03-05T02:06:22;0.70;69.60
67557;DHT22;54387;53.526;49.300;2023-03-05T02:08:48;0.70;70.00
67557;DHT22;54387;53.526;49.300;2023-03-05T02:11:14;0.70;69.50
67557;DHT22;54387;53.526;49.300;2023-03-05T02:13:40;0.70;69.50
67557;DHT22;54387;53.526;49.300;2023-03-05T02:16:07;0.80;69.60
67557;DHT22;54387;53.526;49.300;2023-03-05T02:18:33;0.80;69.40
67557;DHT22;54387;53.526;49.300;2023-03-05T02:21:03;0.80;69.40
67557;DHT22;54387;53.526;49.300;2023-03-05T02:23:31;0.80;69.30
67557;DHT22;54387;53.526;49.300;2023-03-05T02:26:02;0.80;69.30
67557;DHT22;54387;53.526;49.300;2023-03-05T02:30:58;0.90;69.20
67557;DHT22;54387;53.526;49.300;2023-03-05T02:33:24;1.00;69.20
67557;DHT22;54387;53.526;49.300;2023-03-05T02:35:50;1.00;69.00
67557;DHT22;54387;53.526;49.300;2023-03-05T02:38:17;1.00;69.00
67557;DHT22;54387;53.526;49.300;2023-03-05T02:40:44;1.10;69.40
67557;DHT22;54387;53.526;49.300;2023-03-05T02:43:11;1.10;68.70
67557;DHT22;54387;53.526;49.300;2023-03-05T02:45:38;1.10;68.70
67557;DHT22;54387;53.526;49.300;2023-03-05T02:48:04;1.10;68.70
67557;DHT22;54387;53.526;49.300;2023-03-05T02:50:30;1.10;68.70
67557;DHT22;54387;53.526;49.300;2023-03-05T02:52:57;1.10;68.90
67557;DHT22;54387;53.526;49.300;2023-03-05T02:55:24;1.10;69.00
67557;DHT22;54387;53.526;49.300;2023-03-05T02:57:51;1.10;69.10
67557;DHT22;54387;53.526;49.300;2023-03-05T03:00:17;1.00;69.20
67557;DHT22;54387;53.526;49.300;2023-03-05T03:02:44;0.90;69.40
67557;DHT22;54387;53.526;49.300;2023-03-05T03:05:10;0.90;69.70
67557;DHT22;54387;53.526;49.300;2023-03-05T03:07:36;0.90;69.90
67557;DHT22;54387;53.526;49.300;2023-03-05T03:10:03;0.80;70.30
67557;DHT22;54387;53.526;49.300;2023-03-05T03:12:30;0.70;70.80
67557;DHT22;54387;53.526;49.300;2023-03-05T03:14:56;0.70;71.30
67557;DHT22;54387;53.526;49.300;2023-03-05T03:17:24;0.60;71.80
67557;DHT22;54387;53.526;49.300;2023-03-05T03:19:50;0.50;72.10
67557;DHT22;54387;53.526;49.300;2023-03-05T03:22:16;0.50;72.40
67557;DHT22;54387;53.526;49.300;2023-03-05T03:24:43;0.50;72.60
67557;DHT22;54387;53.526;49.300;2023-03-05T03:27:09;0.50;72.70
67557;DHT22;54387;53.526;49.300;2023-03-05T03:29:35;0.50;73.40
67557;DHT22;54387;53.526;49.300;2023-03-05T03:32:02;0.50;73.00
67557;DHT22;54387;53.526;49.300;2023-03-05T03:34:29;0.50;73.20
67557;DHT22;54387;53.526;49.300;2023-03-05T03:36:55;0.50;73.30
67557;DHT22;54387;53.526;49.300;2023-03-05T03:39:21;0.50;73.50
67557;DHT22;54387;53.526;49.300;2023-03-05T03:41:50;0.60;73.60
67557;DHT22;54387;53.526;49.300;2023-03-05T03:44:16;0.50;73.60
67557;DHT22;54387;53.526;49.300;2023-03-05T03:46:44;0.50;73.70
67557;DHT22;54387;53.526;49.300;2023-03-05T03:49:14;0.50;73.80
67557;DHT22;54387;53.526;49.300;2023-03-05T03:51:40;0.50;73.80
67557;DHT22;54387;53.526;49.300;2023-03-05T03:54:07;0.50;73.90
67557;DHT22;54387;53.526;49.300;2023-03-05T03:56:33;0.60;74.00
67557;DHT22;54387;53.526;49.300;2023-03-05T03:58:59;0.60;74.10
67557;DHT22;54387;53.526;49.300;2023-03-05T04:01:26;0.60;73.90
67557;DHT22;54387;53.526;49.300;2023-03-05T04:03:52;0.60;73.90
67557;DHT22;54387;53.526;49.300;2023-03-05T04:06:18;0.70;74.00
67557;DHT22;54387;53.526;49.300;2023-03-05T04:08:44;0.70;73.90
67557;DHT22;54387;53.526;49.300;2023-03-05T04:11:11;0.70;73.80
67557;DHT22;54387;53.526;49.300;2023-03-05T04:13:37;0.70;73.80
67557;DHT22;54387;53.526;49.300;2023-03-05T04:16:03;0.70;73.70
67557;DHT22;54387;53.526;49.300;2023-03-05T04:18:29;0.70;73.70
67557;DHT22;54387;53.526;49.300;2023-03-05T04:20:55;0.80;73.80
67557;DHT22;54387;53.526;49.300;2023-03-05T04:23:21;0.80;73.70
67557;DHT22;54387;53.526;49.300;2023-03-05T04:25:47;0.80;73.60
67557;DHT22;54387;53.526;49.300;2023-03-05T04:28:13;0.90;73.60
67557;DHT22;54387;53.526;49.300;2023-03-05T04:30:39;0.90;73.50
67557;DHT22;54387;53.526;49.300;2023-03-05T04:33:05;0.90;73.30
67557;DHT22;54387;53.526;49.300;2023-03-05T04:35:31;0.90;73.20
67557;DHT22;54387;53.526;49.300;2023-03-05T04:37:57;1.00;73.20
67557;DHT22;54387;53.526;49.300;2023-03-05T04:40:23;1.00;73.10
67557;DHT22;54387;53.526;49.300;2023-03-05T04:42:49;1.10;73.00
67557;DHT22;54387;53.526;49.300;2023-03-05T04:45:15;1.10;72.90
67557;DHT22;54387;53.526;49.300;2023-03-05T04:47:45;1.10;72.70
67557;DHT22;54387;53.526;49.300;2023-03-05T04:50:11;1.10;72.60
67557;DHT22;54387;53.526;49.300;2023-03-05T04:52:41;1.10;72.50
67557;DHT22;54387;53.526;49.300;2023-03-05T04:55:08;1.20;72.50
67557;DHT22;54387;53.526;49.300;2023-03-05T04:57:34;1.20;72.40
67557;DHT22;54387;53.526;49.300;2023-03-05T05:00:01;1.20;72.30
67557;DHT22;54387;53.526;49.300;2023-03-05T05:02:29;1.20;72.20
67557;DHT22;54387;53.526;49.300;2023-03-05T05:04:55;1.30;72.00
67557;DHT22;54387;53.526;49.300;2023-03-05T05:07:21;1.40;72.10
67557;DHT22;54387;53.526;49.300;2023-03-05T05:09:47;1.40;71.90
67557;DHT22;54387;53.526;49.300;2023-03-05T05:12:13;1.40;71.60
67557;DHT22;54387;53.526;49.300;2023-03-05T05:14:40;1.40;71.60
67557;DHT22;54387;53.526;49.300;2023-03-05T05:17:06;1.40;71.60
67557;DHT22;54387;53.526;49.300;2023-03-05T05:19:32;1.50;71.60
67557;DHT22;54387;53.526;49.300;2023-03-05T05:21:58;1.50;71.60
67557;DHT22;54387;53.526;49.300;2023-03-05T05:24:24;1.60;71.80
67557;DHT22;54387;53.526;49.300;2023-03-05T05:26:52;1.70;71.60
67557;DHT22;54387;53.526;49.300;2023-03-05T05:29:19;1.80;71.50
67557;DHT22;54387;53.526;49.300;2023-03-05T05:31:45;1.80;71.40
67557;DHT22;54387;53.526;49.300;2023-03-05T05:34:11;1.80;71.30
67557;DHT22;54387;53.526;49.300;2023-03-05T05:36:37;1.90;71.20
67557;DHT22;54387;53.526;49.300;2023-03-05T05:39:03;1.90;71.20
67557;DHT22;54387;53.526;49.300;2023-03-05T05:41:29;2.00;71.30
67557;DHT22;54387;53.526;49.300;2023-03-05T05:43:55;2.00;71.10
67557;DHT22;54387;53.526;49.300;2023-03-05T05:46:21;2.10;71.20
67557;DHT22;54387;53.526;49.300;2023-03-05T05:48:47;2.10;71.20
67557;DHT22;54387;53.526;49.300;2023-03-05T05:51:14;2.10;71.40
67557;DHT22;54387;53.526;49.300;2023-03-05T05:53:41;2.10;71.40
67557;DHT22;54387;53.526;49.300;2023-03-05T05:56:08;2.10;71.40
67557;DHT22;54387;53.526;49.300;2023-03-05T05:58:35;2.10;72.10
67557;DHT22;54387;53.526;49.300;2023-03-05T06:01:01;2.10;71.60
67557;DHT22;54387;53.526;49.300;2023-03-05T06:03:27;2.00;71.70
67557;DHT22;54387;53.526;49.300;2023-03-05T06:05:53;2.10;71.90
67557;DHT22;54387;53.526;49.300;2023-03-05T06:08:20;2.00;72.10
67557;DHT22;54387;53.526;49.300;2023-03-05T06:10:52;2.00;72.30
67557;DHT22;54387;53.526;49.300;2023-03-05T06:13:18;2.00;72.60
67557;DHT22;54387;53.526;49.300;2023-03-05T06:15:44;1.90;72.60
67557;DHT22;54387;53.526;49.300;2023-03-05T06:18:10;2.00;72.90
67557;DHT22;54387;53.526;49.300;2023-03-05T06:20:36;1.90;72.80
67557;DHT22;54387;53.526;49.300;2023-03-05T06:23:02;1.90;72.90
67557;DHT22;54387;53.526;49.300;2023-03-05T06:25:33;1.90;73.80
67557;DHT22;54387;53.526;49.300;2023-03-05T06:27:59;1.90;73.30
67557;DHT22;54387;53.526;49.300;2023-03-05T06:30:25;1.90;73.50
67557;DHT22;54387;53.526;49.300;2023-03-05T06:32:51;1.90;73.60
67557;DHT22;54387;53.526;49.300;2023-03-05T06:35:17;2.00;73.90
67557;DHT22;54387;53.526;49.300;2023-03-05T06:37:43;2.10;73.90
67557;DHT22;54387;53.526;49.300;2023-03-05T06:40:09;2.20;73.80
67557;DHT22;54387;53.526;49.300;2023-03-05T06:42:36;2.20;73.50
67557;DHT22;54387;53.526;49.300;2023-03-05T06:45:02;2.20;73.50
67557;DHT22;54387;53.526;49.300;2023-03-05T06:47:28;2.20;73.50
67557;DHT22;54387;53.526;49.300;2023-03-05T06:49:54;2.20;73.60
67557;DHT22;54387;53.526;49.300;2023-03-05T06:52:20;2.20;73.60
67557;DHT22;54387;53.526;49.300;2023-03-05T06:54:46;2.20;73.60
67557;DHT22;54387;53.526;49.300;2023-03-05T06:57:12;2.20;73.40
67557;DHT22;54387;53.526;49.300;2023-03-05T06:59:38;2.00;73.20
67557;DHT22;54387;53.526;49.300;2023-03-05T07:02:05;1.90;73.30
67557;DHT22;54387;53.526;49.300;2023-03-05T07:04:31;1.80;73.40
67557;DHT22;54387;53.526;49.300;2023-03-05T07:06:57;1.70;73.80
67557;DHT22;54387;53.526;49.300;2023-03-05T07:09:23;1.70;74.20
67557;DHT22;54387;53.526;49.300;2023-03-05T07:11:49;1.80;74.40
67557;DHT22;54387;53.526;49.300;2023-03-05T07:14:16;1.80;74.60
67557;DHT22;54387;53.526;49.300;2023-03-05T07:16:42;1.90;74.70
67557;DHT22;54387;53.526;49.300;2023-03-05T07:19:09;2.00;74.70
67557;DHT22;54387;53.526;49.300;2023-03-05T07:21:35;2.10;74.50
67557;DHT22;54387;53.526;49.300;2023-03-05T07:24:02;2.20;74.60
67557;DHT22;54387;53.526;49.300;2023-03-05T07:26:28;2.30;74.40
67557;DHT22;54387;53.526;49.300;2023-03-05T07:28:55;2.30;74.20
67557;DHT22;54387;53.526;49.300;2023-03-05T07:31:22;2.20;73.80
67557;DHT22;54387;53.526;49.300;2023-03-05T07:33:51;2.10;73.70
67557;DHT22;54387;53.526;49.300;2023-03-05T07:36:18;2.00;73.90
67557;DHT22;54387;53.526;49.300;2023-03-05T07:38:44;2.00;74.10
67557;DHT22;54387;53.526;49.300;2023-03-05T07:41:11;2.00;74.30
67557;DHT22;54387;53.526;49.300;2023-03-05T07:43:38;2.00;74.40
67557;DHT22;54387;53.526;49.300;2023-03-05T07:46:05;2.10;74.50
67557;DHT22;54387;53.526;49.300;2023-03-05T07:48:31;2.20;74.50
67557;DHT22;54387;53.526;49.300;2023-03-05T07:51:04;2.30;74.50
67557;DHT22;54387;53.526;49.300;2023-03-05T07:53:31;2.40;74.30
67557;DHT22;54387;53.526;49.300;2023-03-05T07:55:57;2.40;73.80
67557;DHT22;54387;53.526;49.300;2023-03-05T07:58:23;2.50;73.50
67557;DHT22;54387;53.526;49.300;2023-03-05T08:00:49;2.50;73.20
67557;DHT22;54387;53.526;49.300;2023-03-05T08:03:16;2.50;73.40
67557;DHT22;54387;53.526;49.300;2023-03-05T08:05:42;2.50;73.10
67557;DHT22;54387;53.526;49.300;2023-03-05T08:08:08;2.50;73.20
67557;DHT22;54387;53.526;49.300;2023-03-05T08:10:35;2.50;73.50
67557;DHT22;54387;53.526;49.300;2023-03-05T08:13:01;2.60;73.80
67557;DHT22;54387;53.526;49.300;2023-03-05T08:15:27;2.70;73.80
67557;DHT22;54387;53.526;49.300;2023-03-05T08:17:53;2.80;73.60
67557;DHT22;54387;53.526;49.300;2023-03-05T08:20:19;2.80;73.50
67557;DHT22;54387;53.526;49.300;2023-03-05T08:22:45;2.90;73.60
67557;DHT22;54387;53.526;49.300;2023-03-05T08:25:11;3.10;74.20
67557;DHT22;54387;53.526;49.300;2023-03-05T08:27:41;3.40;74.20
67557;DHT22;54387;53.526;49.300;2023-03-05T08:30:09;3.60;73.40
67557;DHT22;54387;53.526;49.300;2023-03-05T08:32:35;3.70;73.40
67557;DHT22;54387;53.526;49.300;2023-03-05T08:35:01;3.90;73.40
67557;DHT22;54387;53.526;49.300;2023-03-05T08:37:29;4.00;73.00
67557;DHT22;54387;53.526;49.300;2023-03-05T08:39:55;4.00;71.90
67557;DHT22;54387;53.526;49.300;2023-03-05T08:42:22;3.90;71.20
67557;DHT22;54387;53.526;49.300;2023-03-05T08:44:48;3.80;70.70
67557;DHT22;54387;53.526;49.300;2023-03-05T08:47:15;3.70;70.60
67557;DHT22;54387;53.526;49.300;2023-03-05T08:49:43;3.70;70.40
67557;DHT22;54387;53.526;49.300;2023-03-05T08:52:09;3.70;69.50
67557;DHT22;54387;53.526;49.300;2023-03-05T08:54:36;3.60;68.60
67557;DHT22;54387;53.526;49.300;2023-03-05T08:57:03;3.60;67.60
67557;DHT22;54387;53.526;49.300;2023-03-05T08:59:29;3.60;67.00
67557;DHT22;54387;53.526;49.300;2023-03-05T09:01:59;3.60;67.20
67557;DHT22;54387;53.526;49.300;2023-03-05T09:04:25;3.60;67.20
67557;DHT22;54387;53.526;49.300;2023-03-05T09:06:51;3.60;66.30
67557;DHT22;54387;53.526;49.300;2023-03-05T09:09:17;3.60;66.30
67557;DHT22;54387;53.526;49.300;2023-03-05T09:11:46;3.70;66.50
67557;DHT22;54387;53.526;49.300;2023-03-05T09:14:12;3.90;66.40
67557;DHT22;54387;53.526;49.300;2023-03-05T09:16:38;4.00;65.90
67557;DHT22;54387;53.526;49.300;2023-03-05T09:19:06;4.00;64.00
67557;DHT22;54387;53.526;49.300;2023-03-05T09:21:33;4.00;63.90
67557;DHT22;54387;53.526;49.300;2023-03-05T09:23:59;4.10;64.00
67557;DHT22;54387;53.526;49.300;2023-03-05T09:26:26;4.20;64.40
67557;DHT22;54387;53.526;49.300;2023-03-05T09:28:52;4.30;64.10
67557;DHT22;54387;53.526;49.300;2023-03-05T09:31:18;4.40;63.60
67557;DHT22;54387;53.526;49.300;2023-03-05T09:33:46;4.60;63.20
67557;DHT22;54387;53.526;49.300;2023-03-05T09:36:16;4.70;62.60
67557;DHT22;54387;53.526;49.300;2023-03-05T09:38:42;4.80;62.90
67557;DHT22;54387;53.526;49.300;2023-03-05T09:43:50;5.20;62.20
67557;DHT22;54387;53.526;49.300;2023-03-05T09:49:07;6.00;61.50
67557;DHT22;54387;53.526;49.300;2023-03-05T09:51:37;6.50;60.90
67557;DHT22;54387;53.526;49.300;2023-03-05T09:54:16;7.00;59.60
67557;DHT22;54387;53.526;49.300;2023-03-05T09:56:45;7.30;57.80
67557;DHT22;54387;53.526;49.300;2023-03-05T10:01:39;7.80;57.00
67557;DHT22;54387;53.526;49.300;2023-03-05T10:09:24;9.10;52.70
67557;DHT22;54387;53.526;49.300;2023-03-05T10:11:58;9.00;52.00
67557;DHT22;54387;53.526;49.300;2023-03-05T10:14:29;8.70;51.20
67557;DHT22;54387;53.526;49.300;2023-03-05T10:17:14;8.30;51.10
67557;DHT22;54387;53.526;49.300;2023-03-05T10:25:17;8.10;51.50
67557;DHT22;54387;53.526;49.300;2023-03-05T10:27:49;7.90;50.60
67557;DHT22;54387;53.526;49.300;2023-03-05T10:32:49;7.40;51.50
67557;DHT22;54387;53.526;49.300;2023-03-05T10:45:42;7.50;54.00
67557;DHT22;54387;53.526;49.300;2023-03-05T10:48:28;7.50;53.10
67557;DHT22;54387;53.526;49.300;2023-03-05T10:51:01;7.80;53.80
67557;DHT22;54387;53.526;49.300;2023-03-05T10:56:00;8.30;51.20
67557;DHT22;54387;53.526;49.300;2023-03-05T10:58:26;8.00;51.00
67557;DHT22;54387;53.526;49.300;2023-03-05T11:01:11;7.70;52.30
67557;DHT22;54387;53.526;49.300;2023-03-05T11:03:46;7.20;52.60
67557;DHT22;54387;53.526;49.300;2023-03-05T11:06:13;6.80;53.90
67557;DHT22;54387;53.526;49.300;2023-03-05T11:08:40;6.50;54.30
67557;DHT22;54387;53.526;49.300;2023-03-05T11:13:43;5.70;56.00
67557;DHT22;54387;53.526;49.300;2023-03-05T11:16:14;5.40;57.10
67557;DHT22;54387;53.526;49.300;2023-03-05T11:18:41;5.10;58.00
67557;DHT22;54387;53.526;49.300;2023-03-05T11:21:08;5.00;58.90
67557;DHT22;54387;53.526;49.300;2023-03-05T11:23:36;4.80;59.50
67557;DHT22;54387;53.526;49.300;2023-03-05T11:26:04;4.60;60.00
67557;DHT22;54387;53.526;49.300;2023-03-05T11:29:15;4.40;60.80
67557;DHT22;54387;53.526;49.300;2023-03-05T11:31:25;4.30;60.70
67557;DHT22;54387;53.526;49.300;2023-03-05T11:33:58;4.20;60.90
67557;DHT22;54387;53.526;49.300;2023-03-05T11:36:26;4.00;61.20
67557;DHT22;54387;53.526;49.300;2023-03-05T11:39:08;3.80;61.90
67557;DHT22;54387;53.526;49.300;2023-03-05T11:44:00;3.30;63.60
67557;DHT22;54387;53.526;49.300;2023-03-05T11:46:33;3.10;64.60
67557;DHT22;54387;53.526;49.300;2023-03-05T11:49:01;2.80;65.40
67557;DHT22;54387;53.526;49.300;2023-03-05T11:51:31;2.50;65.90
67557;DHT22;54387;53.526;49.300;2023-03-05T11:54:04;2.30;66.70
67557;DHT22;54387;53.526;49.300;2023-03-05T11:56:37;2.10;67.20
67557;DHT22;54387;53.526;49.300;2023-03-05T11:59:05;1.90;67.70
67557;DHT22;54387;53.526;49.300;2023-03-05T12:01:39;1.80;68.10
67557;DHT22;54387;53.526;49.300;2023-03-05T12:04:07;1.70;68.40
67557;DHT22;54387;53.526;49.300;2023-03-05T12:06:43;1.60;68.40
67557;DHT22;54387;53.526;49.300;2023-03-05T12:11:39;1.60;68.90
67557;DHT22;54387;53.526;49.300;2023-03-05T12:16:41;1.50;69.60
67557;DHT22;54387;53.526;49.300;2023-03-05T12:19:26;1.40;69.70
67557;DHT22;54387;53.526;49.300;2023-03-05T12:21:55;1.30;69.80
67557;DHT22;54387;53.526;49.300;2023-03-05T12:29:28;1.40;70.40
67557;DHT22;54387;53.526;49.300;2023-03-05T12:31:56;1.30;70.90
67557;DHT22;54387;53.526;49.300;2023-03-05T12:37:12;1.30;72.30
67557;DHT22;54387;53.526;49.300;2023-03-05T12:47:44;1.50;71.80
67557;DHT22;54387;53.526;49.300;2023-03-05T12:53:12;1.50;71.70
67557;DHT22;54387;53.526;49.300;2023-03-05T12:58:09;1.80;72.50
67557;DHT22;54387;53.526;49.300;2023-03-05T13:00:37;1.90;72.30
67557;DHT22;54387;53.526;49.300;2023-03-05T13:03:07;2.10;72.30
67557;DHT22;54387;53.526;49.300;2023-03-05T13:05:36;2.20;72.00
67557;DHT22;54387;53.526;49.300;2023-03-05T13:08:22;2.30;71.80
67557;DHT22;54387;53.526;49.300;2023-03-05T13:10:54;2.30;71.30
67557;DHT22;54387;53.526;49.300;2023-03-05T13:13:22;2.20;71.20
67557;DHT22;54387;53.526;49.300;2023-03-05T13:15:50;2.10;71.20
67557;DHT22;54387;53.526;49.300;2023-03-05T13:18:24;2.10;71.40
67557;DHT22;54387;53.526;49.300;2023-03-05T13:23:27;2.50;72.20
67557;DHT22;54387;53.526;49.300;2023-03-05T13:25:57;3.10;73.00
67557;DHT22;54387;53.526;49.300;2023-03-05T13:28:24;3.80;72.20
67557;DHT22;54387;53.526;49.300;2023-03-05T13:30:52;4.10;69.90
67557;DHT22;54387;53.526;49.300;2023-03-05T13:33:21;4.00;69.20
67557;DHT22;54387;53.526;49.300;2023-03-05T13:35:48;3.90;69.10
67557;DHT22;54387;53.526;49.300;2023-03-05T13:38:38;4.10;69.30
67557;DHT22;54387;53.526;49.300;2023-03-05T13:43:30;4.00;67.70
67557;DHT22;54387;53.526;49.300;2023-03-05T13:45:57;3.70;67.70
67557;DHT22;54387;53.526;49.300;2023-03-05T13:48:25;3.60;67.60
67557;DHT22;54387;53.526;49.300;2023-03-05T13:50:55;3.60;67.60
67557;DHT22;54387;53.526;49.300;2023-03-05T13:55:49;3.40;66.40
67557;DHT22;54387;53.526;49.300;2023-03-05T14:01:04;3.00;66.40
67557;DHT22;54387;53.526;49.300;2023-03-05T14:03:37;2.70;66.30
67557;DHT22;54387;53.526;49.300;2023-03-05T14:06:08;2.50;66.20
67557;DHT22;54387;53.526;49.300;2023-03-05T14:08:34;2.30;66.30
67557;DHT22;54387;53.526;49.300;2023-03-05T14:11:10;2.20;66.40
67557;DHT22;54387;53.526;49.300;2023-03-05T14:13:37;2.10;66.50
67557;DHT22;54387;53.526;49.300;2023-03-05T14:16:07;2.00;66.50
67557;DHT22;54387;53.526;49.300;2023-03-05T14:18:34;1.90;66.40
67557;DHT22;54387;53.526;49.300;2023-03-05T14:23:38;1.50;67.50
67557;DHT22;54387;53.526;49.300;2023-03-05T14:28:52;1.10;68.50
67557;DHT22;54387;53.526;49.300;2023-03-05T14:31:19;1.00;68.80
67557;DHT22;54387;53.526;49.300;2023-03-05T14:33:45;0.90;69.10
67557;DHT22;54387;53.526;49.300;2023-03-05T14:36:12;0.90;69.10
67557;DHT22;54387;53.526;49.300;2023-03-05T14:38:39;0.80;68.90
67557;DHT22;54387;53.526;49.300;2023-03-05T14:43:44;0.60;68.90
67557;DHT22;54387;53.526;49.300;2023-03-05T14:46:10;0.50;68.90
67557;DHT22;54387;53.526;49.300;2023-03-05T14:48:36;0.40;69.00
67557;DHT22;54387;53.526;49.300;2023-03-05T14:51:02;0.40;69.10
67557;DHT22;54387;53.526;49.300;2023-03-05T14:53:32;0.30;69.20
67557;DHT22;54387;53.526;49.300;2023-03-05T14:56:00;0.30;69.30
67557;DHT22;54387;53.526;49.300;2023-03-05T14:58:28;0.20;69.10
67557;DHT22;54387;53.526;49.300;2023-03-05T15:00:58;0.20;68.90
67557;DHT22;54387;53.526;49.300;2023-03-05T15:03:24;0.20;68.40
67557;DHT22;54387;53.526;49.300;2023-03-05T15:05:51;0.20;67.90
67557;DHT22;54387;53.526;49.300;2023-03-05T15:08:19;0.20;67.80
67557;DHT22;54387;53.526;49.300;2023-03-05T15:10:46;0.20;67.40
67557;DHT22;54387;53.526;49.300;2023-03-05T15:13:13;0.20;67.00
67557;DHT22;54387;53.526;49.300;2023-03-05T15:15:39;0.20;66.90
67557;DHT22;54387;53.526;49.300;2023-03-05T15:18:06;0.20;67.20
67557;DHT22;54387;53.526;49.300;2023-03-05T15:20:32;0.10;68.00
67557;DHT22;54387;53.526;49.300;2023-03-05T15:22:58;0.10;68.90
67557;DHT22;54387;53.526;49.300;2023-03-05T15:25:25;0.00;69.40
67557;DHT22;54387;53.526;49.300;2023-03-05T15:27:54;0.00;70.10
67557;DHT22;54387;53.526;49.300;2023-03-05T15:30:27;0.00;70.50
67557;DHT22;54387;53.526;49.300;2023-03-05T15:32:54;0.00;70.80
67557;DHT22;54387;53.526;49.300;2023-03-05T15:35:21;-0.10;71.00
67557;DHT22;54387;53.526;49.300;2023-03-05T15:37:47;-0.10;71.20
67557;DHT22;54387;53.526;49.300;2023-03-05T15:40:13;-0.10;71.20
67557;DHT22;54387;53.526;49.300;2023-03-05T15:42:39;-0.10;71.20
67557;DHT22;54387;53.526;49.300;2023-03-05T15:45:07;-0.10;71.30
67557;DHT22;54387;53.526;49.300;2023-03-05T15:47:33;-0.10;71.50
67557;DHT22;54387;53.526;49.300;2023-03-05T15:49:59;-0.20;71.80
67557;DHT22;54387;53.526;49.300;2023-03-05T15:52:25;-0.20;72.00
67557;DHT22;54387;53.526;49.300;2023-03-05T15:54:51;-0.20;72.30
67557;DHT22;54387;53.526;49.300;2023-03-05T15:57:18;-0.10;72.60
67557;DHT22;54387;53.526;49.300;2023-03-05T15:59:48;-0.10;72.80
67557;DHT22;54387;53.526;49.300;2023-03-05T16:02:14;-0.10;72.80
67557;DHT22;54387;53.526;49.300;2023-03-05T16:04:40;-0.10;72.80
67557;DHT22;54387;53.526;49.300;2023-03-05T16:07:06;-0.20;72.60
67557;DHT22;54387;53.526;49.300;2023-03-05T16:09:37;-0.10;72.60
67557;DHT22;54387;53.526;49.300;2023-03-05T16:12:06;-0.20;72.30
67557;DHT22;54387;53.526;49.300;2023-03-05T16:14:35;-0.20;72.00
67557;DHT22;54387;53.526;49.300;2023-03-05T16:17:02;-0.20;71.70
67557;DHT22;54387;53.526;49.300;2023-03-05T16:19:28;-0.20;71.30
67557;DHT22;54387;53.526;49.300;2023-03-05T16:21:55;-0.20;71.10
67557;DHT22;54387;53.526;49.300;2023-03-05T16:24:21;-0.30;70.90
67557;DHT22;54387;53.526;49.300;2023-03-05T16:26:47;-0.30;70.50
67557;DHT22;54387;53.526;49.300;2023-03-05T16:29:13;-0.30;70.40
67557;DHT22;54387;53.526;49.300;2023-03-05T16:31:39;-0.30;70.10
67557;DHT22;54387;53.526;49.300;2023-03-05T16:34:07;-0.40;69.80
67557;DHT22;54387;53.526;49.300;2023-03-05T16:36:34;-0.40;69.60
67557;DHT22;54387;53.526;49.300;2023-03-05T16:39:01;-0.40;69.40
67557;DHT22;54387;53.526;49.300;2023-03-05T16:41:27;-0.50;69.30
67557;DHT22;54387;53.526;49.300;2023-03-05T16:43:54;-0.50;69.20
67557;DHT22;54387;53.526;49.300;2023-03-05T16:46:23;-0.50;69.20
67557;DHT22;54387;53.526;49.300;2023-03-05T16:48:51;-0.60;69.20
67557;DHT22;54387;53.526;49.300;2023-03-05T16:51:18;-0.50;69.30
67557;DHT22;54387;53.526;49.300;2023-03-05T16:53:44;-0.60;70.10
67557;DHT22;54387;53.526;49.300;2023-03-05T16:56:10;-0.60;69.60
67557;DHT22;54387;53.526;49.300;2023-03-05T16:58:37;-0.50;69.70
67557;DHT22;54387;53.526;49.300;2023-03-05T17:01:07;-0.50;69.80